createdAt,value
2023-06-14T00:00:58.038Z,0.00
2023-06-14T00:01:58.074Z,0.00
2023-06-14T00:02:57.999Z,0.00
2023-06-14T00:03:58.054Z,0.00
2023-06-14T00:04:57.934Z,0.00
2023-06-14T00:05:57.978Z,0.00
2023-06-14T00:06:57.938Z,0.00
2023-06-14T00:07:57.880Z,0.00
2023-06-14T00:08:57.885Z,0.00
2023-06-14T00:09:57.928Z,0.00
2023-06-14T00:10:57.901Z,0.00
2023-06-14T00:11:57.846Z,0.00
2023-06-14T00:12:57.863Z,0.00
2023-06-14T00:13:57.820Z,0.00
2023-06-14T00:14:57.867Z,0.00
2023-06-14T00:15:57.810Z,0.00
2023-06-14T00:16:57.877Z,0.00
2023-06-14T00:17:57.844Z,0.00
2023-06-14T00:18:57.776Z,0.00
2023-06-14T00:19:57.802Z,0.00
2023-06-14T00:20:57.755Z,0.00
2023-06-14T00:21:57.722Z,0.00
2023-06-14T00:22:57.734Z,0.00
2023-06-14T00:23:57.783Z,0.00
2023-06-14T00:24:57.747Z,0.00
2023-06-14T00:25:57.674Z,0.00
2023-06-14T00:26:57.674Z,0.00
2023-06-14T00:27:57.658Z,0.00
2023-06-14T00:28:57.709Z,0.00
2023-06-14T00:29:57.642Z,0.00
2023-06-14T00:30:57.630Z,0.00
2023-06-14T00:31:57.691Z,0.00
2023-06-14T00:32:57.620Z,0.00
2023-06-14T00:33:57.639Z,0.00
2023-06-14T00:34:57.612Z,0.00
2023-06-14T00:35:57.567Z,0.00
2023-06-14T00:36:57.566Z,0.00
2023-06-14T00:37:57.611Z,0.00
2023-06-14T00:38:57.584Z,0.00
2023-06-14T00:39:57.536Z,0.00
2023-06-14T00:40:57.534Z,0.00
2023-06-14T00:41:57.507Z,0.00
2023-06-14T00:42:57.544Z,0.00
2023-06-14T00:43:57.510Z,0.00
2023-06-14T00:44:57.463Z,0.00
2023-06-14T00:45:57.497Z,0.00
2023-06-14T00:46:57.549Z,0.00
2023-06-14T00:47:57.535Z,0.00
2023-06-14T00:48:57.438Z,0.00
2023-06-14T00:49:57.423Z,0.00
2023-06-14T00:50:57.416Z,0.00
2023-06-14T00:51:57.446Z,0.00
2023-06-14T00:52:57.436Z,0.00
2023-06-14T00:53:57.373Z,0.00
2023-06-14T00:54:57.352Z,0.00
2023-06-14T00:55:57.320Z,0.00
2023-06-14T00:56:57.388Z,0.00
2023-06-14T00:57:57.342Z,0.00
2023-06-14T00:58:57.315Z,0.00
2023-06-14T00:59:57.305Z,0.00
2023-06-14T01:00:57.309Z,0.00
2023-06-14T01:01:57.362Z,0.00
2023-06-14T01:02:57.358Z,0.00
2023-06-14T01:03:57.346Z,0.00
2023-06-14T01:04:57.246Z,0.00
2023-06-14T01:05:57.275Z,0.00
2023-06-14T01:06:57.269Z,0.00
2023-06-14T01:07:57.204Z,0.00
2023-06-14T01:08:57.188Z,0.00
2023-06-14T01:09:57.174Z,0.00
2023-06-14T01:10:57.233Z,0.00
2023-06-14T01:11:57.157Z,0.00
2023-06-14T01:12:57.163Z,0.00
2023-06-14T01:13:57.146Z,0.00
2023-06-14T01:14:57.126Z,0.00
2023-06-14T01:15:57.262Z,0.00
2023-06-14T01:16:57.233Z,0.00
2023-06-14T01:17:57.132Z,0.00
2023-06-14T01:18:57.084Z,0.00
2023-06-14T01:19:57.119Z,0.00
2023-06-14T01:20:57.101Z,0.00
2023-06-14T01:21:57.033Z,0.00
2023-06-14T01:22:57.022Z,0.00
2023-06-14T01:23:57.126Z,0.00
2023-06-14T01:24:57.054Z,0.00
2023-06-14T01:25:57.012Z,0.00
2023-06-14T01:26:56.989Z,0.00
2023-06-14T01:27:56.992Z,0.00
2023-06-14T01:28:56.961Z,0.00
2023-06-14T01:29:57.029Z,0.00
2023-06-14T01:30:56.953Z,0.00
2023-06-14T01:31:56.934Z,0.00
2023-06-14T01:32:56.968Z,0.00
2023-06-14T01:33:56.940Z,0.00
2023-06-14T01:34:56.975Z,0.00
2023-06-14T01:35:56.878Z,0.00
2023-06-14T01:36:56.859Z,0.00
2023-06-14T01:37:56.863Z,0.00
2023-06-14T01:38:56.898Z,0.00
2023-06-14T01:39:56.847Z,0.00
2023-06-14T01:40:56.834Z,0.00
2023-06-14T01:41:56.837Z,0.00
2023-06-14T01:42:56.815Z,0.00
2023-06-14T01:43:56.851Z,0.00
2023-06-14T01:44:56.779Z,0.00
2023-06-14T01:45:56.853Z,0.00
2023-06-14T01:46:56.758Z,0.00
2023-06-14T01:47:56.847Z,0.00
2023-06-14T01:48:56.791Z,0.00
2023-06-14T01:49:56.720Z,0.00
2023-06-14T01:50:56.704Z,0.00
2023-06-14T01:51:56.699Z,0.00
2023-06-14T01:52:56.756Z,0.00
2023-06-14T01:53:56.684Z,0.00
2023-06-14T01:54:56.681Z,0.00
2023-06-14T01:55:56.633Z,0.00
2023-06-14T01:56:56.638Z,0.00
2023-06-14T01:57:56.700Z,0.00
2023-06-14T01:58:56.647Z,0.00
2023-06-14T01:59:56.590Z,0.00
2023-06-14T02:00:56.702Z,0.00
2023-06-14T02:01:56.658Z,0.00
2023-06-14T02:02:56.629Z,0.00
2023-06-14T02:03:56.577Z,0.00
2023-06-14T02:04:56.543Z,0.00
2023-06-14T02:05:56.731Z,0.00
2023-06-14T02:06:56.632Z,0.00
2023-06-14T02:07:56.507Z,0.00
2023-06-14T02:08:56.500Z,0.00
2023-06-14T02:09:56.490Z,0.00
2023-06-14T02:10:56.476Z,0.00
2023-06-14T02:11:56.511Z,0.00
2023-06-14T02:12:56.509Z,0.00
2023-06-14T02:13:56.459Z,0.00
2023-06-14T02:14:56.467Z,0.00
2023-06-14T02:15:56.522Z,0.00
2023-06-14T02:16:56.453Z,0.00
2023-06-14T02:17:56.450Z,0.00
2023-06-14T02:18:56.371Z,0.00
2023-06-14T02:19:56.362Z,0.00
2023-06-14T02:20:56.408Z,0.00
2023-06-14T02:21:56.353Z,0.00
2023-06-14T02:22:56.355Z,0.00
2023-06-14T02:23:56.377Z,0.00
2023-06-14T02:25:02.060Z,0.00
2023-06-14T02:25:57.394Z,0.00
2023-06-14T02:26:56.291Z,0.00
2023-06-14T02:27:56.280Z,0.00
2023-06-14T02:28:56.276Z,0.00
2023-06-14T02:29:56.294Z,5.62
2023-06-14T02:30:56.303Z,5.62
2023-06-14T02:31:56.259Z,5.62
2023-06-14T02:32:56.244Z,5.62
2023-06-14T02:33:56.214Z,5.62
2023-06-14T02:34:56.253Z,5.62
2023-06-14T02:35:56.201Z,5.62
2023-06-14T02:36:56.193Z,5.62
2023-06-14T02:37:56.166Z,11.25
2023-06-14T02:38:56.153Z,11.25
2023-06-14T02:39:56.210Z,11.25
2023-06-14T02:40:56.132Z,11.25
2023-06-14T02:41:56.118Z,11.25
2023-06-14T02:42:56.110Z,16.88
2023-06-14T02:43:56.168Z,16.88
2023-06-14T02:44:56.131Z,16.88
2023-06-14T02:45:56.082Z,16.88
2023-06-14T02:46:56.050Z,16.88
2023-06-14T02:47:56.126Z,22.50
2023-06-14T02:48:56.120Z,22.50
2023-06-14T02:49:56.019Z,22.50
2023-06-14T02:50:55.998Z,22.50
2023-06-14T02:51:56.011Z,28.12
2023-06-14T02:52:55.994Z,28.12
2023-06-14T02:53:56.047Z,28.12
2023-06-14T02:54:55.976Z,33.75
2023-06-14T02:55:55.966Z,33.75
2023-06-14T02:56:55.939Z,33.75
2023-06-14T02:57:55.979Z,33.75
2023-06-14T02:58:55.968Z,39.38
2023-06-14T02:59:55.925Z,39.38
2023-06-14T03:00:55.954Z,39.38
2023-06-14T03:01:55.883Z,45.00
2023-06-14T03:02:56.269Z,45.00
2023-06-14T03:03:55.909Z,45.00
2023-06-14T03:04:55.847Z,50.62
2023-06-14T03:05:55.844Z,50.62
2023-06-14T03:06:55.829Z,50.62
2023-06-14T03:07:55.866Z,56.25
2023-06-14T03:08:55.811Z,56.25
2023-06-14T03:09:55.801Z,56.25
2023-06-14T03:10:55.782Z,61.88
2023-06-14T03:11:55.818Z,61.88
2023-06-14T03:12:55.799Z,67.50
2023-06-14T03:13:55.763Z,67.50
2023-06-14T03:14:55.743Z,73.12
2023-06-14T03:15:55.721Z,73.12
2023-06-14T03:16:55.818Z,78.75
2023-06-14T03:17:55.720Z,84.38
2023-06-14T03:18:55.671Z,90.00
2023-06-14T03:19:55.671Z,95.62
2023-06-14T03:20:55.669Z,95.62
2023-06-14T03:21:55.706Z,101.25
2023-06-14T03:22:55.641Z,101.25
2023-06-14T03:23:55.700Z,106.88
2023-06-14T03:24:55.615Z,112.50
2023-06-14T03:25:55.668Z,118.12
2023-06-14T03:26:55.643Z,118.12
2023-06-14T03:27:55.591Z,118.12
2023-06-14T03:28:55.578Z,123.75
2023-06-14T03:29:55.561Z,123.75
2023-06-14T03:30:55.658Z,123.75
2023-06-14T03:31:55.562Z,129.38
2023-06-14T03:32:55.626Z,129.38
2023-06-14T03:33:55.535Z,135.00
2023-06-14T03:34:55.517Z,140.62
2023-06-14T03:35:55.552Z,146.25
2023-06-14T03:36:55.510Z,146.25
2023-06-14T03:37:55.458Z,146.25
2023-06-14T03:38:55.462Z,146.25
2023-06-14T03:39:55.499Z,146.25
2023-06-14T03:40:55.478Z,151.88
2023-06-14T03:41:55.425Z,157.50
2023-06-14T03:42:55.421Z,163.12
2023-06-14T03:43:55.412Z,168.75
2023-06-14T03:44:55.437Z,168.75
2023-06-14T03:45:55.409Z,168.75
2023-06-14T03:46:55.383Z,174.38
2023-06-14T03:47:55.516Z,174.38
2023-06-14T03:48:55.340Z,180.00
2023-06-14T03:49:55.391Z,185.62
2023-06-14T03:50:55.325Z,196.88
2023-06-14T03:51:55.331Z,219.38
2023-06-14T03:52:55.301Z,225.00
2023-06-14T03:56:09.506Z,303.75
2023-06-14T03:56:56.271Z,275.62
2023-06-14T03:57:55.272Z,303.75
2023-06-14T03:58:55.304Z,331.88
2023-06-14T03:59:55.221Z,343.12
2023-06-14T04:00:55.219Z,343.12
2023-06-14T04:01:55.205Z,343.12
2023-06-14T04:02:55.275Z,354.38
2023-06-14T04:03:55.420Z,360.00
2023-06-14T04:04:55.214Z,365.62
2023-06-14T04:05:55.178Z,376.88
2023-06-14T04:06:55.160Z,382.50
2023-06-14T04:07:55.174Z,393.75
2023-06-14T04:08:55.161Z,405.00
2023-06-14T04:09:55.125Z,410.62
2023-06-14T04:10:55.094Z,405.00
2023-06-14T04:11:55.113Z,405.00
2023-06-14T04:12:55.159Z,410.62
2023-06-14T04:13:55.079Z,343.12
2023-06-14T04:14:56.942Z,275.62
2023-06-14T04:15:56.041Z,264.38
2023-06-14T04:16:55.017Z,213.75
2023-06-14T04:17:55.164Z,208.12
2023-06-14T04:18:54.991Z,208.12
2023-06-14T04:19:54.997Z,202.50
2023-06-14T04:20:54.977Z,196.88
2023-06-14T04:21:55.008Z,202.50
2023-06-14T04:22:55.018Z,191.25
2023-06-14T04:23:55.036Z,185.62
2023-06-14T04:25:04.856Z,185.62
2023-06-14T04:25:55.922Z,185.62
2023-06-14T04:26:54.948Z,185.62
2023-06-14T04:27:54.924Z,185.62
2023-06-14T04:28:54.893Z,191.25
2023-06-14T04:29:54.872Z,196.88
2023-06-14T04:30:54.918Z,202.50
2023-06-14T04:31:57.067Z,230.62
2023-06-14T04:32:55.212Z,258.75
2023-06-14T04:33:54.991Z,275.62
2023-06-14T04:34:54.848Z,281.25
2023-06-14T04:35:54.872Z,286.88
2023-06-14T04:36:54.886Z,607.50
2023-06-14T04:37:55.017Z,675.00
2023-06-14T04:38:54.760Z,590.62
2023-06-14T04:39:54.784Z,725.62
2023-06-14T04:40:54.789Z,725.62
2023-06-14T04:41:54.728Z,624.38
2023-06-14T04:42:54.730Z,714.38
2023-06-14T04:43:54.736Z,720.00
2023-06-14T04:44:54.738Z,720.00
2023-06-14T04:45:54.781Z,748.12
2023-06-14T04:46:54.654Z,697.50
2023-06-14T04:47:54.739Z,748.12
2023-06-14T04:48:54.674Z,759.38
2023-06-14T04:49:54.715Z,765.00
2023-06-14T04:50:54.656Z,781.88
2023-06-14T04:51:54.622Z,798.75
2023-06-14T04:52:54.641Z,821.25
2023-06-14T04:53:54.635Z,832.50
2023-06-14T04:54:54.690Z,849.38
2023-06-14T04:55:54.586Z,568.12
2023-06-14T04:56:54.579Z,736.88
2023-06-14T04:57:54.584Z,765.00
2023-06-14T04:58:54.586Z,517.50
2023-06-14T04:59:54.596Z,720.00
2023-06-14T05:00:54.597Z,433.12
2023-06-14T05:01:54.635Z,286.88
2023-06-14T05:02:54.796Z,270.00
2023-06-14T05:03:54.588Z,264.38
2023-06-14T05:04:54.506Z,264.38
2023-06-14T05:05:54.486Z,264.38
2023-06-14T05:06:54.451Z,275.62
2023-06-14T05:07:54.464Z,298.12
2023-06-14T05:08:54.470Z,326.25
2023-06-14T05:09:54.442Z,365.62
2023-06-14T05:10:54.414Z,393.75
2023-06-14T05:11:54.392Z,416.25
2023-06-14T05:12:54.416Z,421.88
2023-06-14T05:13:54.422Z,438.75
2023-06-14T05:14:54.381Z,455.62
2023-06-14T05:15:54.404Z,472.50
2023-06-14T05:16:54.331Z,466.88
2023-06-14T05:17:54.576Z,433.12
2023-06-14T05:18:54.364Z,405.00
2023-06-14T05:19:54.320Z,388.12
2023-06-14T05:20:54.294Z,371.25
2023-06-14T05:21:54.273Z,365.62
2023-06-14T05:22:54.306Z,360.00
2023-06-14T05:23:54.299Z,354.38
2023-06-14T05:24:54.245Z,348.75
2023-06-14T05:25:54.232Z,348.75
2023-06-14T05:26:54.304Z,348.75
2023-06-14T05:27:54.268Z,360.00
2023-06-14T05:28:54.197Z,371.25
2023-06-14T05:29:54.173Z,376.88
2023-06-14T05:30:54.160Z,371.25
2023-06-14T05:31:54.325Z,365.62
2023-06-14T05:32:54.216Z,360.00
2023-06-14T05:33:54.187Z,348.75
2023-06-14T05:34:54.133Z,348.75
2023-06-14T05:35:54.105Z,343.12
2023-06-14T05:36:54.133Z,331.88
2023-06-14T05:37:54.094Z,320.62
2023-06-14T05:38:54.108Z,309.38
2023-06-14T05:39:54.061Z,298.12
2023-06-14T05:40:54.084Z,298.12
2023-06-14T05:41:54.086Z,309.38
2023-06-14T05:42:54.026Z,326.25
2023-06-14T05:43:54.011Z,343.12
2023-06-14T05:44:54.015Z,360.00
2023-06-14T05:45:54.056Z,360.00
2023-06-14T05:46:54.044Z,348.75
2023-06-14T05:47:54.130Z,337.50
2023-06-14T05:48:53.976Z,320.62
2023-06-14T05:49:53.953Z,309.38
2023-06-14T05:50:53.980Z,286.88
2023-06-14T05:51:53.924Z,270.00
2023-06-14T05:52:53.915Z,247.50
2023-06-14T05:53:53.939Z,236.25
2023-06-14T05:54:53.958Z,225.00
2023-06-14T05:55:53.934Z,219.38
2023-06-14T05:56:53.878Z,225.00
2023-06-14T05:57:53.868Z,230.62
2023-06-14T05:58:53.845Z,236.25
2023-06-14T05:59:53.895Z,241.88
2023-06-14T06:00:53.836Z,247.50
2023-06-14T06:01:53.845Z,258.75
2023-06-14T06:02:53.961Z,270.00
2023-06-14T06:03:53.911Z,286.88
2023-06-14T06:04:53.817Z,309.38
2023-06-14T06:05:53.799Z,331.88
2023-06-14T06:06:53.737Z,354.38
2023-06-14T06:07:53.732Z,376.88
2023-06-14T06:08:53.768Z,388.12
2023-06-14T06:09:53.712Z,399.38
2023-06-14T06:10:53.730Z,399.38
2023-06-14T06:11:54.633Z,382.50
2023-06-14T06:12:53.701Z,371.25
2023-06-14T06:13:53.733Z,354.38
2023-06-14T06:14:53.676Z,343.12
2023-06-14T06:15:53.651Z,343.12
2023-06-14T06:16:53.807Z,354.38
2023-06-14T06:17:56.625Z,365.62
2023-06-14T06:18:53.708Z,393.75
2023-06-14T06:19:53.606Z,433.12
2023-06-14T06:20:53.621Z,478.12
2023-06-14T06:21:53.576Z,523.12
2023-06-14T06:22:53.632Z,556.88
2023-06-14T06:23:53.569Z,568.12
2023-06-14T06:24:53.544Z,545.62
2023-06-14T06:25:53.549Z,517.50
2023-06-14T06:26:53.548Z,489.38
2023-06-14T06:27:53.562Z,466.88
2023-06-14T06:28:53.521Z,455.62
2023-06-14T06:29:53.494Z,455.62
2023-06-14T06:30:53.550Z,472.50
2023-06-14T06:31:53.513Z,483.75
2023-06-14T06:32:53.529Z,511.88
2023-06-14T06:33:53.466Z,556.88
2023-06-14T06:34:53.436Z,613.12
2023-06-14T06:35:53.400Z,669.38
2023-06-14T06:36:53.462Z,720.00
2023-06-14T06:37:53.404Z,753.75
2023-06-14T06:38:53.396Z,748.12
2023-06-14T06:39:53.350Z,725.62
2023-06-14T06:40:53.399Z,697.50
2023-06-14T06:41:53.410Z,669.38
2023-06-14T06:42:53.328Z,646.88
2023-06-14T06:43:53.354Z,624.38
2023-06-14T06:44:53.301Z,613.12
2023-06-14T06:45:53.377Z,618.75
2023-06-14T06:46:53.344Z,641.25
2023-06-14T06:47:53.352Z,663.75
2023-06-14T06:48:53.270Z,658.12
2023-06-14T06:49:53.260Z,646.88
2023-06-14T06:50:53.306Z,646.88
2023-06-14T06:51:53.256Z,658.12
2023-06-14T06:52:53.274Z,691.88
2023-06-14T06:53:53.213Z,731.25
2023-06-14T06:54:53.219Z,781.88
2023-06-14T06:55:53.288Z,832.50
2023-06-14T06:56:53.197Z,866.25
2023-06-14T06:57:53.158Z,916.88
2023-06-14T06:58:53.167Z,1018.12
2023-06-14T06:59:53.214Z,1119.38
2023-06-14T07:00:53.213Z,1164.38
2023-06-14T07:01:54.866Z,1186.88
2023-06-14T07:02:53.130Z,1192.50
2023-06-14T07:03:53.078Z,1192.50
2023-06-14T07:04:53.164Z,1175.62
2023-06-14T07:05:53.125Z,1153.12
2023-06-14T07:06:53.091Z,1130.62
2023-06-14T07:07:53.887Z,1130.62
2023-06-14T07:08:53.086Z,1130.62
2023-06-14T07:09:53.080Z,1108.12
2023-06-14T07:10:53.048Z,1051.88
2023-06-14T07:11:53.050Z,990.00
2023-06-14T07:12:53.034Z,916.88
2023-06-14T07:13:53.052Z,860.62
2023-06-14T07:14:52.986Z,832.50
2023-06-14T07:15:52.951Z,832.50
2023-06-14T07:16:52.958Z,866.25
2023-06-14T07:17:52.999Z,933.75
2023-06-14T07:18:52.964Z,1001.25
2023-06-14T07:19:52.922Z,1063.12
2023-06-14T07:20:52.920Z,1096.88
2023-06-14T07:21:52.894Z,1108.12
2023-06-14T07:22:52.918Z,1085.62
2023-06-14T07:23:52.932Z,1080.00
2023-06-14T07:24:52.874Z,1158.75
2023-06-14T07:25:52.849Z,1473.75
2023-06-14T07:26:52.835Z,1423.12
2023-06-14T07:27:52.883Z,1406.25
2023-06-14T07:28:52.802Z,1282.50
2023-06-14T07:29:52.828Z,1260.00
2023-06-14T07:30:52.777Z,1310.62
2023-06-14T07:31:52.777Z,1265.62
2023-06-14T07:32:52.852Z,1186.88
2023-06-14T07:33:52.837Z,1130.62
2023-06-14T07:34:52.739Z,1074.38
2023-06-14T07:35:52.746Z,1018.12
2023-06-14T07:36:52.779Z,995.62
2023-06-14T07:37:52.794Z,1006.88
2023-06-14T07:38:52.710Z,1046.25
2023-06-14T07:39:52.671Z,1091.25
2023-06-14T07:40:52.683Z,1136.25
2023-06-14T07:41:52.715Z,1181.25
2023-06-14T07:42:52.650Z,1209.38
2023-06-14T07:43:52.636Z,1226.25
2023-06-14T07:44:52.674Z,1237.50
2023-06-14T07:46:06.494Z,1243.12
2023-06-14T07:46:53.655Z,1248.75
2023-06-14T07:47:52.683Z,1265.62
2023-06-14T07:48:52.743Z,1293.75
2023-06-14T07:49:52.573Z,1310.62
2023-06-14T07:50:52.609Z,1333.12
2023-06-14T07:51:52.603Z,1350.00
2023-06-14T07:52:52.682Z,1366.88
2023-06-14T07:53:52.525Z,1383.75
2023-06-14T07:54:52.525Z,1400.62
2023-06-14T07:55:53.860Z,1423.12
2023-06-14T07:56:52.481Z,1496.25
2023-06-14T07:57:52.461Z,2154.38
2023-06-14T07:58:52.482Z,3105.00
2023-06-14T07:59:52.479Z,2621.25
2023-06-14T08:00:52.489Z,1788.75
2023-06-14T08:01:52.444Z,1940.62
2023-06-14T08:02:54.323Z,1794.38
2023-06-14T08:03:53.465Z,2295.00
2023-06-14T08:04:52.470Z,1946.25
2023-06-14T08:05:52.400Z,1743.75
2023-06-14T08:06:52.502Z,1642.50
2023-06-14T08:07:52.389Z,1535.62
2023-06-14T08:08:52.371Z,1569.38
2023-06-14T08:09:52.404Z,1693.12
2023-06-14T08:10:52.368Z,1800.00
2023-06-14T08:11:52.324Z,1963.12
2023-06-14T08:12:52.328Z,1946.25
2023-06-14T08:13:52.370Z,2266.88
2023-06-14T08:15:01.396Z,2210.62
2023-06-14T08:15:53.312Z,1743.75
2023-06-14T08:16:52.298Z,1800.00
2023-06-14T08:17:52.328Z,2008.12
2023-06-14T08:18:52.338Z,2660.62
2023-06-14T08:19:52.249Z,2936.25
2023-06-14T08:20:52.237Z,2435.62
2023-06-14T08:21:52.257Z,2160.00
2023-06-14T08:22:52.189Z,2480.62
2023-06-14T08:23:52.250Z,2058.75
2023-06-14T08:24:52.192Z,1935.00
2023-06-14T08:25:52.203Z,1828.12
2023-06-14T08:26:52.166Z,1755.00
2023-06-14T08:27:52.227Z,1636.88
2023-06-14T08:28:52.252Z,1575.00
2023-06-14T08:29:52.144Z,1625.62
2023-06-14T08:30:52.159Z,1710.00
2023-06-14T08:31:52.141Z,1766.25
2023-06-14T08:33:02.292Z,1755.00
2023-06-14T08:33:53.259Z,1591.88
2023-06-14T08:35:04.118Z,1631.25
2023-06-14T08:35:53.070Z,1670.62
2023-06-14T08:36:52.090Z,1681.88
2023-06-14T08:37:52.106Z,1721.25
2023-06-14T08:38:52.011Z,1704.38
2023-06-14T08:39:52.034Z,1895.62
2023-06-14T08:40:52.007Z,3273.75
2023-06-14T08:41:52.099Z,2351.25
2023-06-14T08:42:52.068Z,2120.62
2023-06-14T08:43:51.998Z,1957.50
2023-06-14T08:44:51.957Z,1760.62
2023-06-14T08:45:51.987Z,1586.25
2023-06-14T08:46:51.997Z,1406.25
2023-06-14T08:47:52.044Z,1231.88
2023-06-14T08:48:51.969Z,1051.88
2023-06-14T08:49:51.954Z,956.25
2023-06-14T08:50:54.255Z,956.25
2023-06-14T08:51:51.891Z,973.12
2023-06-14T08:52:51.868Z,973.12
2023-06-14T08:53:51.867Z,922.50
2023-06-14T08:54:51.847Z,826.88
2023-06-14T08:55:51.901Z,714.38
2023-06-14T08:56:51.829Z,630.00
2023-06-14T08:57:51.799Z,624.38
2023-06-14T08:58:51.817Z,646.88
2023-06-14T08:59:51.767Z,691.88
2023-06-14T09:00:51.860Z,781.88
2023-06-14T09:02:08.197Z,900.00
2023-06-14T09:02:52.759Z,1063.12
2023-06-14T09:03:51.885Z,1209.38
2023-06-14T09:04:51.789Z,1361.25
2023-06-14T09:05:51.768Z,1569.38
2023-06-14T09:06:51.723Z,1856.25
2023-06-14T09:07:51.726Z,2070.00
2023-06-14T09:08:51.671Z,1856.25
2023-06-14T09:10:06.294Z,1766.25
2023-06-14T09:10:52.729Z,1687.50
2023-06-14T09:11:51.676Z,1603.12
2023-06-14T09:12:51.650Z,1591.88
2023-06-14T09:13:51.628Z,1676.25
2023-06-14T09:14:51.681Z,1822.50
2023-06-14T09:15:51.601Z,1816.88
2023-06-14T09:16:51.628Z,1845.00
2023-06-14T09:17:51.628Z,1794.38
2023-06-14T09:18:51.610Z,1721.25
2023-06-14T09:19:51.621Z,1766.25
2023-06-14T09:20:51.564Z,1940.62
2023-06-14T09:21:51.538Z,1800.00
2023-06-14T09:22:51.526Z,1698.75
2023-06-14T09:23:51.555Z,1648.12
2023-06-14T09:24:51.522Z,1603.12
2023-06-14T09:25:51.511Z,1524.38
2023-06-14T09:26:51.465Z,1310.62
2023-06-14T09:27:51.471Z,1226.25
2023-06-14T09:28:51.489Z,1215.00
2023-06-14T09:29:51.425Z,1141.88
2023-06-14T09:30:51.480Z,928.12
2023-06-14T09:31:51.441Z,810.00
2023-06-14T09:32:51.493Z,894.38
2023-06-14T09:33:51.513Z,1063.12
2023-06-14T09:34:51.389Z,1220.62
2023-06-14T09:35:51.391Z,1338.75
2023-06-14T09:36:51.384Z,1130.62
2023-06-14T09:37:51.403Z,888.75
2023-06-14T09:38:51.435Z,714.38
2023-06-14T09:39:51.355Z,579.38
2023-06-14T09:40:51.353Z,472.50
2023-06-14T09:41:51.312Z,410.62
2023-06-14T09:42:51.357Z,382.50
2023-06-14T09:43:51.304Z,382.50
2023-06-14T09:44:51.271Z,382.50
2023-06-14T09:45:51.241Z,376.88
2023-06-14T09:46:51.242Z,360.00
2023-06-14T09:48:05.615Z,331.88
2023-06-14T09:48:52.349Z,303.75
2023-06-14T09:49:51.240Z,286.88
2023-06-14T09:50:51.230Z,270.00
2023-06-14T09:51:51.242Z,253.12
2023-06-14T09:52:51.252Z,236.25
2023-06-14T09:53:51.181Z,230.62
2023-06-14T09:54:51.161Z,236.25
2023-06-14T09:55:51.162Z,258.75
2023-06-14T09:56:51.200Z,275.62
2023-06-14T09:57:51.159Z,292.50
2023-06-14T09:59:03.050Z,303.75
2023-06-14T09:59:52.099Z,303.75
2023-06-14T10:00:51.119Z,303.75
2023-06-14T10:01:51.208Z,320.62
2023-06-14T10:02:51.089Z,360.00
2023-06-14T10:04:52.057Z,489.38
2023-06-14T10:05:51.080Z,528.75
2023-06-14T10:06:51.081Z,551.25
2023-06-14T10:07:51.012Z,551.25
2023-06-14T10:08:51.014Z,551.25
2023-06-14T10:09:51.029Z,545.62
2023-06-14T10:10:51.048Z,585.00
2023-06-14T10:11:51.049Z,646.88
2023-06-14T10:12:50.932Z,697.50
2023-06-14T10:13:50.921Z,753.75
2023-06-14T10:14:50.952Z,753.75
2023-06-14T10:15:50.989Z,675.00
2023-06-14T10:16:50.988Z,613.12
2023-06-14T10:17:50.913Z,613.12
2023-06-14T10:18:50.893Z,669.38
2023-06-14T10:19:50.899Z,736.88
2023-06-14T10:20:50.925Z,793.12
2023-06-14T10:21:50.861Z,815.62
2023-06-14T10:22:50.816Z,871.88
2023-06-14T10:23:50.902Z,967.50
2023-06-14T10:24:50.869Z,1102.50
2023-06-14T10:25:50.780Z,1260.00
2023-06-14T10:26:50.801Z,1383.75
2023-06-14T10:27:50.824Z,1440.00
2023-06-14T10:28:50.792Z,1518.75
2023-06-14T10:29:50.800Z,1625.62
2023-06-14T10:30:50.754Z,1726.88
2023-06-14T10:31:50.789Z,1783.12
2023-06-14T10:32:50.738Z,1845.00
2023-06-14T10:33:50.775Z,1839.38
2023-06-14T10:34:50.761Z,1721.25
2023-06-14T10:35:50.721Z,1614.38
2023-06-14T10:36:50.679Z,1603.12
2023-06-14T10:37:50.674Z,1530.00
2023-06-14T10:38:50.716Z,1681.88
2023-06-14T10:39:50.650Z,1743.75
2023-06-14T10:40:50.621Z,1614.38
2023-06-14T10:41:50.613Z,1378.12
2023-06-14T10:42:50.603Z,1203.75
2023-06-14T10:43:50.663Z,1125.00
2023-06-14T10:44:50.597Z,1141.88
2023-06-14T10:45:50.570Z,1243.12
2023-06-14T10:46:50.591Z,1378.12
2023-06-14T10:47:50.675Z,1395.00
2023-06-14T10:48:50.612Z,1293.75
2023-06-14T10:49:50.551Z,1215.00
2023-06-14T10:50:50.518Z,1271.25
2023-06-14T10:51:50.525Z,1378.12
2023-06-14T10:52:50.560Z,1175.62
2023-06-14T10:53:50.510Z,1141.88
2023-06-14T10:54:50.477Z,1321.88
2023-06-14T10:55:50.471Z,2638.12
2023-06-14T10:56:50.465Z,2728.12
2023-06-14T10:57:52.743Z,1535.62
2023-06-14T10:58:50.448Z,1665.00
2023-06-14T10:59:50.454Z,1878.75
2023-06-14T11:00:50.415Z,1968.75
2023-06-14T11:01:50.624Z,1839.38
2023-06-14T11:02:50.445Z,2036.25
2023-06-14T11:03:50.409Z,1935.00
2023-06-14T11:04:50.347Z,1198.12
2023-06-14T11:05:50.378Z,1001.25
2023-06-14T11:06:50.419Z,1046.25
2023-06-14T11:07:50.328Z,1051.88
2023-06-14T11:08:50.312Z,748.12
2023-06-14T11:09:50.326Z,590.62
2023-06-14T11:10:50.322Z,500.62
2023-06-14T11:11:50.346Z,455.62
2023-06-14T11:12:50.270Z,461.25
2023-06-14T11:13:50.255Z,489.38
2023-06-14T11:14:50.257Z,534.38
2023-06-14T11:15:50.413Z,568.12
2023-06-14T11:16:50.246Z,562.50
2023-06-14T11:17:50.275Z,523.12
2023-06-14T11:18:50.198Z,466.88
2023-06-14T11:19:50.203Z,450.00
2023-06-14T11:20:50.254Z,483.75
2023-06-14T11:21:50.187Z,556.88
2023-06-14T11:22:50.153Z,601.88
2023-06-14T11:23:50.187Z,720.00
2023-06-14T11:24:50.140Z,911.25
2023-06-14T11:25:50.171Z,1080.00
2023-06-14T11:26:50.126Z,1102.50
2023-06-14T11:27:50.104Z,1085.62
2023-06-14T11:28:50.104Z,1018.12
2023-06-14T11:29:50.156Z,945.00
2023-06-14T11:30:50.105Z,916.88
2023-06-14T11:31:50.078Z,990.00
2023-06-14T11:32:50.084Z,1327.50
2023-06-14T11:33:50.035Z,731.25
2023-06-14T11:34:50.040Z,680.62
2023-06-14T11:35:49.998Z,686.25
2023-06-14T11:36:49.996Z,686.25
2023-06-14T11:37:50.060Z,686.25
2023-06-14T11:38:50.048Z,590.62
2023-06-14T11:39:50.055Z,562.50
2023-06-14T11:40:49.964Z,618.75
2023-06-14T11:41:49.965Z,736.88
2023-06-14T11:42:49.931Z,900.00
2023-06-14T11:43:49.992Z,1119.38
2023-06-14T11:44:49.903Z,1372.50
2023-06-14T11:46:00.244Z,1698.75
2023-06-14T11:46:50.955Z,2109.38
2023-06-14T11:47:49.911Z,2328.75
2023-06-14T11:48:49.933Z,2514.38
2023-06-14T11:49:49.861Z,1805.62
2023-06-14T11:50:49.858Z,2638.12
2023-06-14T11:51:49.850Z,1676.25
2023-06-14T11:52:49.872Z,1490.62
2023-06-14T11:53:49.880Z,1411.88
2023-06-14T11:54:49.809Z,1423.12
2023-06-14T11:55:49.791Z,2008.12
2023-06-14T11:56:49.790Z,1676.25
2023-06-14T11:57:49.855Z,4730.62
2023-06-14T11:58:49.792Z,5028.75
2023-06-14T11:59:49.786Z,1400.62
2023-06-14T12:00:49.815Z,4657.50
2023-06-14T12:01:49.719Z,4561.88
2023-06-14T12:02:49.866Z,4651.88
2023-06-14T12:03:49.735Z,4618.12
2023-06-14T12:04:49.677Z,4606.88
2023-06-14T12:05:49.780Z,4601.25
2023-06-14T12:06:49.715Z,4640.62
2023-06-14T12:07:49.736Z,4680.00
2023-06-14T12:08:49.630Z,4674.38
2023-06-14T12:09:49.649Z,4708.12
2023-06-14T12:10:49.672Z,4680.00
2023-06-14T12:11:49.652Z,4674.38
2023-06-14T12:12:49.583Z,4691.25
2023-06-14T12:13:49.614Z,4719.38
2023-06-14T12:14:49.681Z,4758.75
2023-06-14T12:15:49.571Z,4798.12
2023-06-14T12:16:49.626Z,4826.25
2023-06-14T12:17:49.636Z,4848.75
2023-06-14T12:18:49.540Z,4910.62
2023-06-14T12:19:49.622Z,4961.25
2023-06-14T12:20:49.576Z,5068.12
2023-06-14T12:21:49.811Z,5225.62
2023-06-14T12:22:49.522Z,5332.50
2023-06-14T12:23:49.517Z,5433.75
2023-06-14T12:24:49.484Z,5360.62
2023-06-14T12:25:49.518Z,5208.75
2023-06-14T12:26:49.437Z,5191.88
2023-06-14T12:27:49.457Z,5141.25
2023-06-14T12:28:49.485Z,5085.00
2023-06-14T12:29:49.420Z,5236.88
2023-06-14T12:30:49.447Z,4314.38
2023-06-14T12:31:49.438Z,3695.62
2023-06-14T12:32:49.388Z,1468.12
2023-06-14T12:33:49.418Z,1378.12
2023-06-14T12:34:49.455Z,1423.12
2023-06-14T12:35:49.432Z,1524.38